createdAt,value
2018-08-03T00:02:03.036Z,23.00
2018-08-03T00:04:31.056Z,23.00
2018-08-03T00:06:59.215Z,23.00
2018-08-03T00:09:27.229Z,22.90
2018-08-03T00:11:55.244Z,22.90
2018-08-03T00:14:23.243Z,22.90
2018-08-03T00:16:51.255Z,22.80
2018-08-03T00:19:19.259Z,22.80
2018-08-03T00:21:47.300Z,22.80
2018-08-03T00:24:15.311Z,22.90
2018-08-03T00:26:43.311Z,22.90
2018-08-03T00:29:11.316Z,22.90
2018-08-03T00:31:39.330Z,22.90
2018-08-03T00:34:07.445Z,22.90
2018-08-03T00:36:35.459Z,22.80
2018-08-03T00:39:04.360Z,22.80
2018-08-03T00:41:32.371Z,22.80
2018-08-03T00:44:00.399Z,22.80
2018-08-03T00:46:28.411Z,22.80
2018-08-03T00:48:56.431Z,22.80
2018-08-03T00:51:24.487Z,22.80
2018-08-03T00:53:52.507Z,22.80
2018-08-03T00:56:20.527Z,22.80
2018-08-03T00:58:48.548Z,22.80
2018-08-03T01:01:16.568Z,22.80
2018-08-03T01:03:44.608Z,22.90
2018-08-03T01:06:12.627Z,22.80
2018-08-03T01:08:40.700Z,22.80
2018-08-03T01:11:08.740Z,22.70
2018-08-03T01:13:36.776Z,22.70
2018-08-03T01:21:00.492Z,22.60
2018-08-03T01:23:28.528Z,22.70
2018-08-03T01:25:56.591Z,22.70
2018-08-03T01:28:24.630Z,22.80
2018-08-03T01:30:52.687Z,22.80
2018-08-03T01:33:20.707Z,22.90
2018-08-03T01:35:48.719Z,22.90
2018-08-03T01:38:16.744Z,22.80
2018-08-03T01:40:44.763Z,22.70
2018-08-03T01:43:12.783Z,22.80
2018-08-03T01:45:40.818Z,22.80
2018-08-03T01:48:08.835Z,22.80
2018-08-03T01:53:04.704Z,22.90
2018-08-03T01:55:32.750Z,23.00
2018-08-03T02:00:28.608Z,23.10
2018-08-03T02:02:56.640Z,23.20
2018-08-03T02:05:24.681Z,23.10
2018-08-03T02:07:52.704Z,23.10
2018-08-03T02:10:20.748Z,23.20
2018-08-03T02:12:48.787Z,23.20
2018-08-03T02:15:16.811Z,23.10
2018-08-03T02:17:44.846Z,23.10
2018-08-03T02:20:12.880Z,23.10
2018-08-03T02:22:40.899Z,23.10
2018-08-03T02:25:08.936Z,23.00
2018-08-03T02:27:36.947Z,23.00
2018-08-03T02:32:33.068Z,23.10
2018-08-03T02:35:01.108Z,23.10
2018-08-03T02:37:29.124Z,23.00
2018-08-03T02:42:24.969Z,22.90
2018-08-03T02:44:52.988Z,22.90
2018-08-03T02:47:21.016Z,22.90
2018-08-03T02:49:49.036Z,22.90
2018-08-03T02:52:17.070Z,22.80
2018-08-03T02:54:45.076Z,22.90
2018-08-03T02:57:13.092Z,22.80
2018-08-03T02:59:41.115Z,22.80
2018-08-03T03:02:09.144Z,22.70
2018-08-03T03:04:37.160Z,22.70
2018-08-03T03:07:05.180Z,22.70
2018-08-03T03:09:33.220Z,22.60
2018-08-03T03:14:29.080Z,22.60
2018-08-03T03:16:57.107Z,22.50
2018-08-03T03:19:25.163Z,22.50
2018-08-03T03:21:53.160Z,22.60
2018-08-03T03:24:21.176Z,22.60
2018-08-03T03:26:49.191Z,22.60
2018-08-03T03:29:17.195Z,22.50
2018-08-03T03:31:45.213Z,22.50
2018-08-03T03:34:13.237Z,22.50
2018-08-03T03:36:41.256Z,22.50
2018-08-03T03:39:11.576Z,22.50
2018-08-03T03:41:39.596Z,22.50
2018-08-03T03:44:07.870Z,22.50
2018-08-03T03:46:36.192Z,22.60
2018-08-03T03:49:04.222Z,22.60
2018-08-03T03:51:32.259Z,22.70
2018-08-03T03:54:00.504Z,22.70
2018-08-03T03:56:28.523Z,22.70
2018-08-03T03:58:56.651Z,22.60
2018-08-03T04:01:24.697Z,22.60
2018-08-03T04:03:52.834Z,22.60
2018-08-03T04:06:20.852Z,22.60
2018-08-03T04:08:48.886Z,22.60
2018-08-03T04:11:16.925Z,22.60
2018-08-03T04:13:44.968Z,22.60
2018-08-03T04:16:13.011Z,22.60
2018-08-03T04:18:41.022Z,22.60
2018-08-03T04:21:09.066Z,22.70
2018-08-03T04:23:37.075Z,22.80
2018-08-03T04:26:05.357Z,22.90
2018-08-03T04:28:33.382Z,22.90
2018-08-03T04:31:01.397Z,22.90
2018-08-03T04:33:29.431Z,23.00
2018-08-03T04:35:57.460Z,23.10
2018-08-03T04:38:25.490Z,23.00
2018-08-03T04:40:53.508Z,23.10
2018-08-03T04:43:21.586Z,23.00
2018-08-03T04:45:49.600Z,23.10
2018-08-03T04:48:17.633Z,23.20
2018-08-03T04:50:45.660Z,23.30
2018-08-03T04:53:13.915Z,23.40
2018-08-03T04:55:41.974Z,23.40
2018-08-03T04:58:09.987Z,23.40
2018-08-03T05:00:38.016Z,23.40
2018-08-03T05:03:06.204Z,23.40
2018-08-03T05:05:34.248Z,23.50
2018-08-03T05:08:02.292Z,23.50
2018-08-03T05:10:30.336Z,23.50
2018-08-03T05:12:58.380Z,23.60
2018-08-03T05:15:26.467Z,23.70
2018-08-03T05:17:54.467Z,23.70
2018-08-03T05:20:22.527Z,23.80
2018-08-03T05:27:46.300Z,23.90
2018-08-03T05:30:14.323Z,24.00
2018-08-03T05:32:42.563Z,24.10
2018-08-03T05:35:10.597Z,24.10
2018-08-03T05:37:38.603Z,24.10
2018-08-03T05:40:07.537Z,24.20
2018-08-03T05:42:35.625Z,24.20
2018-08-03T05:47:31.490Z,24.40
2018-08-03T05:49:59.504Z,24.50
2018-08-03T05:52:27.590Z,24.40
2018-08-03T05:54:55.812Z,24.40
2018-08-03T05:57:23.832Z,24.50
2018-08-03T05:59:51.853Z,24.50
2018-08-03T06:04:47.718Z,24.50
2018-08-03T06:07:15.764Z,24.60
2018-08-03T06:12:11.699Z,24.70
2018-08-03T06:17:07.557Z,24.70
2018-08-03T06:19:35.582Z,24.70
2018-08-03T06:22:03.600Z,24.70
2018-08-03T06:24:32.315Z,24.80
2018-08-03T06:27:00.590Z,24.80
2018-08-03T06:29:28.777Z,24.80
2018-08-03T06:31:56.785Z,24.80
2018-08-03T06:34:24.820Z,24.90
2018-08-03T06:36:52.968Z,24.90
2018-08-03T06:39:21.008Z,25.00
2018-08-03T06:41:49.080Z,25.10
2018-08-03T06:44:17.123Z,25.10
2018-08-03T06:49:13.090Z,25.40
2018-08-03T06:51:41.104Z,25.50
2018-08-03T06:54:09.145Z,25.50
2018-08-03T06:56:37.176Z,25.50
2018-08-03T06:59:05.349Z,25.60
2018-08-03T07:04:01.216Z,25.90
2018-08-03T07:06:29.227Z,26.00
2018-08-03T07:08:57.245Z,26.10
2018-08-03T07:11:25.455Z,26.20
2018-08-03T07:13:53.471Z,26.30
2018-08-03T07:16:21.499Z,26.50
2018-08-03T07:18:49.520Z,26.50
2018-08-03T07:21:24.176Z,26.70
2018-08-03T07:23:52.240Z,26.80
2018-08-03T07:26:20.244Z,26.90
2018-08-03T07:28:48.511Z,27.00
2018-08-03T07:31:16.807Z,27.10
2018-08-03T07:33:44.838Z,27.20
2018-08-03T07:36:12.842Z,27.30
2018-08-03T07:38:40.855Z,27.40
2018-08-03T07:41:08.953Z,27.40
2018-08-03T07:43:37.054Z,27.40
2018-08-03T07:46:05.011Z,27.40
2018-08-03T07:48:33.049Z,27.40
2018-08-03T07:51:01.352Z,27.20
2018-08-03T07:53:29.624Z,27.20
2018-08-03T07:55:57.796Z,27.10
2018-08-03T07:58:25.807Z,27.10
2018-08-03T08:00:53.838Z,27.30
2018-08-03T08:03:21.864Z,27.30
2018-08-03T08:05:49.913Z,27.40
2018-08-03T08:08:17.932Z,27.50
2018-08-03T08:10:45.959Z,27.60
2018-08-03T08:13:13.998Z,27.60
2018-08-03T08:15:42.086Z,27.70
2018-08-03T08:18:10.036Z,27.80
2018-08-03T08:20:38.060Z,28.00
2018-08-03T08:23:06.359Z,28.20
2018-08-03T08:25:34.383Z,28.20
2018-08-03T08:28:02.425Z,28.20
2018-08-03T08:30:30.468Z,28.30
2018-08-03T08:32:58.484Z,28.30
2018-08-03T08:35:26.499Z,28.30
2018-08-03T08:37:54.533Z,28.40
2018-08-03T08:40:22.549Z,28.40
2018-08-03T08:42:50.576Z,28.50
2018-08-03T08:47:46.440Z,28.60
2018-08-03T08:50:14.484Z,28.70
2018-08-03T08:52:42.484Z,28.70
2018-08-03T08:55:10.507Z,28.80
2018-08-03T08:57:38.533Z,28.90
2018-08-03T09:00:06.550Z,28.90
2018-08-03T09:05:02.408Z,29.10
2018-08-03T09:07:30.490Z,29.20
2018-08-03T09:09:58.458Z,29.30
2018-08-03T09:12:26.484Z,29.50
2018-08-03T09:14:54.502Z,29.50
2018-08-03T09:17:22.515Z,29.60
2018-08-03T09:19:50.978Z,29.60
2018-08-03T09:22:19.009Z,29.70
2018-08-03T09:24:47.148Z,29.70
2018-08-03T09:27:15.103Z,29.70
2018-08-03T09:29:43.120Z,29.80
2018-08-03T09:32:11.154Z,29.90
2018-08-03T09:34:39.203Z,30.00
2018-08-03T09:37:07.240Z,30.00
2018-08-03T09:39:35.278Z,30.00
2018-08-03T09:42:03.300Z,30.00
2018-08-03T09:44:31.316Z,30.10
2018-08-03T09:49:27.195Z,30.20
2018-08-03T09:51:55.216Z,30.00
2018-08-03T09:56:51.060Z,30.20
2018-08-03T10:01:46.960Z,30.40
2018-08-03T10:04:14.991Z,30.50
2018-08-03T10:06:43.028Z,30.60
2018-08-03T10:11:38.868Z,30.70
2018-08-03T10:16:34.704Z,30.90
2018-08-03T10:21:30.575Z,31.00
2018-08-03T10:23:58.595Z,31.10
2018-08-03T10:26:26.633Z,31.20
2018-08-03T10:28:54.656Z,31.20
2018-08-03T10:31:22.740Z,31.20
2018-08-03T10:33:50.769Z,31.20
2018-08-03T10:36:18.780Z,31.20
2018-08-03T10:38:46.804Z,31.30
2018-08-03T10:41:14.850Z,31.30
2018-08-03T10:43:42.888Z,31.30
2018-08-03T10:46:11.217Z,31.40
2018-08-03T10:48:39.230Z,31.40
2018-08-03T10:51:07.764Z,31.50
2018-08-03T10:53:35.771Z,31.60
2018-08-03T10:58:31.620Z,31.40
2018-08-03T11:00:59.659Z,31.10
2018-08-03T11:03:27.672Z,31.10
2018-08-03T11:05:55.692Z,31.20
2018-08-03T11:08:23.715Z,31.30
2018-08-03T11:10:51.743Z,31.30
2018-08-03T11:15:47.600Z,31.20
2018-08-03T11:18:15.627Z,31.30
2018-08-03T11:20:43.636Z,31.50
2018-08-03T11:23:11.667Z,31.40
2018-08-03T11:25:39.691Z,31.50
2018-08-03T11:28:07.715Z,31.40
2018-08-03T11:30:35.720Z,31.30
2018-08-03T11:33:03.744Z,31.30
2018-08-03T11:35:31.756Z,31.20
2018-08-03T11:37:59.812Z,31.20
2018-08-03T11:42:55.673Z,31.30
2018-08-03T11:45:23.712Z,31.40
2018-08-03T11:47:51.735Z,31.30
2018-08-03T11:50:19.763Z,31.20
2018-08-03T11:57:43.467Z,31.10
2018-08-03T12:00:11.512Z,31.20
2018-08-03T12:02:39.588Z,31.20
2018-08-03T12:07:35.461Z,31.20
2018-08-03T12:10:03.480Z,31.10
2018-08-03T12:12:31.592Z,31.10
2018-08-03T12:14:59.554Z,31.30
2018-08-03T12:19:55.404Z,31.70
2018-08-03T12:22:23.471Z,31.80
2018-08-03T12:24:51.811Z,31.90
2018-08-03T12:27:19.823Z,31.90
2018-08-03T12:29:47.831Z,31.80
2018-08-03T12:32:15.868Z,31.70
2018-08-03T12:34:43.921Z,31.70
2018-08-03T12:37:11.978Z,31.60
2018-08-03T12:39:39.956Z,31.70
2018-08-03T12:42:07.983Z,31.70
2018-08-03T12:44:36.022Z,30.40
2018-08-03T12:47:04.015Z,31.90
2018-08-03T12:49:32.035Z,32.10
2018-08-03T12:52:00.062Z,32.20
2018-08-03T12:54:28.084Z,32.40
2018-08-03T12:56:56.118Z,32.60
2018-08-03T12:59:24.128Z,32.60
2018-08-03T13:01:52.173Z,32.60
2018-08-03T13:04:20.252Z,32.60
2018-08-03T13:06:49.300Z,32.60
2018-08-03T13:09:17.329Z,32.60
2018-08-03T13:11:45.360Z,32.50
2018-08-03T13:14:13.376Z,32.60
2018-08-03T13:16:41.375Z,32.30
2018-08-03T13:19:09.441Z,32.20
2018-08-03T13:21:39.247Z,32.30
2018-08-03T13:24:07.276Z,32.40
2018-08-03T13:26:35.740Z,32.40
2018-08-03T13:29:03.767Z,32.60
2018-08-03T13:31:32.155Z,32.40
2018-08-03T13:34:00.306Z,32.30
2018-08-03T13:36:29.631Z,32.50
2018-08-03T13:38:57.662Z,32.80
2018-08-03T13:41:25.732Z,33.00
2018-08-03T13:43:53.788Z,33.30
2018-08-03T13:48:50.204Z,33.20
2018-08-03T13:51:18.875Z,33.00
2018-08-03T13:53:47.466Z,33.20
2018-08-03T13:56:16.247Z,33.50
2018-08-03T13:58:45.128Z,33.60
2018-08-03T14:01:25.096Z,33.60
2018-08-03T14:03:53.138Z,33.30
2018-08-03T14:06:21.175Z,33.10
2018-08-03T14:16:14.529Z,32.90
2018-08-03T14:18:43.327Z,32.90
2018-08-03T14:21:11.335Z,32.90
2018-08-03T14:26:07.340Z,33.10
2018-08-03T14:28:35.376Z,33.00
2018-08-03T14:31:03.449Z,33.00
2018-08-03T14:33:31.479Z,33.40
2018-08-03T14:38:27.336Z,34.10
2018-08-03T14:40:55.353Z,34.10
2018-08-03T14:43:23.376Z,34.00
2018-08-03T14:45:51.416Z,33.80
2018-08-03T14:50:47.263Z,33.30
2018-08-03T14:53:15.305Z,32.90
2018-08-03T14:55:43.309Z,32.70
2018-08-03T14:58:11.337Z,32.40
2018-08-03T15:00:39.377Z,32.30
2018-08-03T15:03:07.384Z,32.60
2018-08-03T15:05:35.397Z,32.90
2018-08-03T15:08:03.472Z,33.00
2018-08-03T15:10:32.191Z,33.00
2018-08-03T15:13:00.272Z,32.80
2018-08-03T15:15:28.444Z,32.90
2018-08-03T15:17:56.472Z,33.10
2018-08-03T15:20:24.508Z,33.20
2018-08-03T15:22:52.526Z,33.30
2018-08-03T15:25:20.540Z,33.30
2018-08-03T15:27:48.552Z,33.40
2018-08-03T15:30:16.571Z,33.40
2018-08-03T15:32:44.609Z,33.70
2018-08-03T15:35:12.670Z,34.20
2018-08-03T15:40:08.632Z,35.00
2018-08-03T15:42:36.707Z,35.00
2018-08-03T15:45:06.356Z,35.50
2018-08-03T15:50:02.292Z,35.50
2018-08-03T15:52:30.312Z,35.40
2018-08-03T15:54:58.354Z,35.10
2018-08-03T15:57:26.351Z,35.20
2018-08-03T15:59:54.408Z,35.10
2018-08-03T16:02:22.416Z,35.10
2018-08-03T16:04:50.464Z,35.30
2018-08-03T16:07:18.496Z,35.00
2018-08-03T16:09:46.528Z,34.80
2018-08-03T16:12:14.587Z,35.10
2018-08-03T16:14:42.616Z,34.70
2018-08-03T16:17:10.640Z,34.80
2018-08-03T16:19:38.672Z,34.70
2018-08-03T16:22:06.711Z,34.70
2018-08-03T16:24:34.725Z,34.70
2018-08-03T16:27:02.748Z,34.70
2018-08-03T16:29:30.772Z,34.80
2018-08-03T16:31:58.807Z,34.50
2018-08-03T16:34:26.829Z,34.30
2018-08-03T16:36:54.846Z,34.10
2018-08-03T16:39:22.876Z,34.30
2018-08-03T16:41:50.893Z,34.70
2018-08-03T16:44:18.908Z,34.60
2018-08-03T16:46:46.940Z,34.50
2018-08-03T16:49:14.967Z,34.60
2018-08-03T16:54:10.807Z,34.50
2018-08-03T16:59:06.702Z,34.10
2018-08-03T17:01:34.847Z,33.80
2018-08-03T17:04:02.856Z,33.90
2018-08-03T17:06:30.888Z,34.30
2018-08-03T17:08:58.908Z,34.40
2018-08-03T17:11:26.940Z,34.40
2018-08-03T17:13:54.957Z,34.00
2018-08-03T17:18:50.912Z,33.30
2018-08-03T17:21:18.931Z,33.50
2018-08-03T17:23:46.948Z,33.60
2018-08-03T17:26:14.988Z,33.30
2018-08-03T17:28:43.012Z,32.80
2018-08-03T17:31:11.025Z,32.50
2018-08-03T17:33:39.031Z,32.10
2018-08-03T17:36:07.075Z,32.00
2018-08-03T17:38:35.090Z,32.00
2018-08-03T17:41:03.103Z,32.10
2018-08-03T17:43:31.116Z,32.20
2018-08-03T17:45:59.155Z,32.10
2018-08-03T17:50:55.029Z,31.80
2018-08-03T17:53:23.056Z,31.50
2018-08-03T17:55:51.110Z,31.60
2018-08-03T17:58:19.116Z,31.60
2018-08-03T18:00:47.183Z,31.40
2018-08-03T18:03:15.195Z,31.10
2018-08-03T18:05:43.230Z,31.10
2018-08-03T18:08:11.264Z,30.90
2018-08-03T18:10:39.312Z,30.80
2018-08-03T18:13:07.352Z,30.60
2018-08-03T18:15:35.380Z,30.50
2018-08-03T18:18:03.408Z,30.30
2018-08-03T18:20:31.455Z,30.20
2018-08-03T18:22:59.676Z,30.10
2018-08-03T18:25:27.703Z,30.10
2018-08-03T18:27:55.714Z,30.10
2018-08-03T18:30:23.741Z,30.00
2018-08-03T18:32:51.743Z,30.00
2018-08-03T18:35:19.787Z,29.90
2018-08-03T18:37:47.824Z,29.70
2018-08-03T18:40:15.898Z,29.50
2018-08-03T18:42:43.912Z,29.40
2018-08-03T18:45:11.942Z,29.30
2018-08-03T18:47:39.963Z,29.20
2018-08-03T18:50:08.019Z,29.10
2018-08-03T18:52:36.034Z,29.00
2018-08-03T18:55:04.727Z,29.00
2018-08-03T18:57:32.806Z,28.90
2018-08-03T19:00:00.857Z,28.80
2018-08-03T19:02:28.961Z,28.80
2018-08-03T19:07:24.808Z,28.70
2018-08-03T19:09:52.859Z,28.60
2018-08-03T19:12:20.855Z,28.50
2018-08-03T19:14:48.877Z,28.30
2018-08-03T19:17:16.913Z,28.20
2018-08-03T19:19:44.920Z,28.10
2018-08-03T19:22:12.964Z,28.00
2018-08-03T19:24:40.994Z,27.90
2018-08-03T19:27:09.040Z,27.80
2018-08-03T19:29:37.072Z,27.60
2018-08-03T19:32:05.323Z,27.40
2018-08-03T19:37:01.136Z,27.30
2018-08-03T19:39:29.180Z,27.20
2018-08-03T19:41:57.217Z,27.20
2018-08-03T19:44:25.280Z,27.00
2018-08-03T19:46:53.347Z,27.00
2018-08-03T19:49:21.368Z,26.80
2018-08-03T19:51:49.416Z,26.80
2018-08-03T19:54:17.452Z,26.70
2018-08-03T19:56:45.663Z,26.60
2018-08-03T19:59:13.739Z,26.50
2018-08-03T20:01:41.716Z,26.50
2018-08-03T20:04:09.740Z,26.50
2018-08-03T20:06:38.204Z,26.40
2018-08-03T20:09:09.188Z,26.50
2018-08-03T20:11:37.231Z,26.40
2018-08-03T20:14:05.277Z,26.30
2018-08-03T20:16:33.296Z,26.20
2018-08-03T20:19:01.337Z,26.20
2018-08-03T20:21:29.368Z,26.20
2018-08-03T20:23:57.377Z,26.20
2018-08-03T20:26:25.449Z,26.00
2018-08-03T20:28:53.488Z,26.00
2018-08-03T20:33:49.371Z,25.90
2018-08-03T20:36:17.561Z,25.90
2018-08-03T20:38:45.736Z,25.80
2018-08-03T20:41:13.768Z,25.80
2018-08-03T20:43:41.873Z,25.70
2018-08-03T20:46:09.899Z,25.70
2018-08-03T20:48:37.932Z,25.70
2018-08-03T20:51:06.416Z,25.70
2018-08-03T20:53:34.428Z,25.60
2018-08-03T20:56:02.440Z,25.60
2018-08-03T20:58:30.526Z,25.50
2018-08-03T21:00:58.508Z,25.50
2018-08-03T21:03:26.544Z,25.50
2018-08-03T21:05:54.575Z,25.50
2018-08-03T21:08:22.600Z,25.50
2018-08-03T21:10:50.608Z,25.40
2018-08-03T21:13:18.636Z,25.50
2018-08-03T21:15:46.800Z,25.40
2018-08-03T21:18:14.799Z,25.40
2018-08-03T21:20:42.803Z,25.30
2018-08-03T21:23:10.832Z,25.20
2018-08-03T21:25:38.848Z,25.10
2018-08-03T21:28:06.864Z,25.00
2018-08-03T21:30:34.926Z,24.90
2018-08-03T21:33:02.960Z,24.80
2018-08-03T21:35:30.987Z,24.70
2018-08-03T21:40:26.843Z,24.50
2018-08-03T21:42:54.879Z,24.60
2018-08-03T21:45:22.904Z,24.60
2018-08-03T21:47:50.969Z,24.60
2018-08-03T21:50:18.991Z,24.50
2018-08-03T21:52:47.067Z,24.50
2018-08-03T21:55:15.044Z,24.30
2018-08-03T22:00:14.944Z,24.20
2018-08-03T22:02:42.963Z,24.20
2018-08-03T22:05:10.999Z,24.20
2018-08-03T22:07:39.154Z,24.20
2018-08-03T22:10:07.168Z,24.10
2018-08-03T22:12:35.311Z,24.10
2018-08-03T22:15:03.328Z,24.00
2018-08-03T22:17:31.355Z,24.10
2018-08-03T22:19:59.355Z,24.00
2018-08-03T22:22:27.368Z,24.00
2018-08-03T22:24:55.772Z,24.00
2018-08-03T22:27:23.823Z,23.90
2018-08-03T22:29:51.859Z,23.80
2018-08-03T22:32:19.897Z,23.80
2018-08-03T22:34:48.032Z,23.80
2018-08-03T22:37:16.049Z,23.70
2018-08-03T22:39:44.071Z,23.70
2018-08-03T22:42:12.192Z,23.60
2018-08-03T22:44:40.220Z,23.50
2018-08-03T22:47:08.234Z,23.40
2018-08-03T22:49:36.239Z,23.30
2018-08-03T22:52:04.276Z,23.20
2018-08-03T22:54:32.323Z,23.20
2018-08-03T22:59:28.496Z,23.30
2018-08-03T23:01:56.514Z,23.30
2018-08-03T23:04:24.678Z,23.20
2018-08-03T23:06:52.944Z,23.10
2018-08-03T23:09:20.965Z,23.00
2018-08-03T23:11:48.983Z,22.90
2018-08-03T23:14:17.015Z,22.80
2018-08-03T23:16:45.068Z,22.70
2018-08-03T23:19:13.088Z,22.60
2018-08-03T23:21:41.107Z,22.60
2018-08-03T23:26:36.951Z,22.50
2018-08-03T23:29:04.975Z,22.40
2018-08-03T23:31:32.995Z,22.40
2018-08-03T23:34:01.044Z,22.40
2018-08-03T23:36:29.079Z,22.40
2018-08-03T23:38:57.130Z,22.40
2018-08-03T23:41:25.151Z,22.40
2018-08-03T23:43:53.188Z,22.30
2018-08-03T23:46:21.204Z,22.30
2018-08-03T23:48:49.236Z,22.20
2018-08-03T23:51:17.244Z,22.20
2018-08-03T23:56:13.156Z,22.20
2018-08-03T23:58:41.156Z,22.20
